Aeroporto :
LOGIN :

Iscrizione | Disclaimer

   EN    FR    IT 

 










Sommario :    VFR   VFR Marginale   IFR   IFR Intensivo   IFR Molto Intensivo
Visibilità : 
Base nubi : 
>= 8 km
>= 3000ft
5 / 8 km
1000 / 3000 ft
1500m / 5 km
500 / 1000 ft
800 / 1500m
200 / 500 ft
< 800m
< 200 ft
Simboli :   Temporali  Nebbia  Neve Forte  Precipitazioni Forti  Vento > 20 kt
SIGMETs :   Varie  Temporali  Ghiacco  Turbolenza  Onda orograficha  Ceneri Vulcaniche







- Altitudine del aeroporto : 821 ft
- Codice IATA : LYS
- Carte del aeroporto


LFLL - Lyon St Exupéry / Satolas

ULTIMO METAR :
  • 200630Z VRB02KT 9999 FEW007 BKN058 BKN110 18/17 Q1015 NOSIG

METARs OBSOLETI :
  • 200600Z 02004KT 340V100 9999 FEW007 BKN058 BKN120 18/17 Q1015 NOSIG
  • 200530Z 03005KT 360V060 9999 FEW033 SCT046 BKN100 18/17 Q1014 NOSIG
  • 200500Z 36005KT 320V020 9999 -RA FEW040CB BKN056 18/17 Q1014 NOSIG
  • 200430Z 31005KT 9999 FEW040CB BKN056 17/16 Q1015 NOSIG
  • 200400Z 27002KT 9999 FEW053TCU BKN056 BKN120 17/16 Q1014 NOSIG

TAF AMD TAF LFLL
Valido dal 20 a 06 ore il 21 a 12 ore UTC


200638Z 2006/2112 36005KT 9999 BKN050 BKN100
PROB30
TEMPO 2007/2011 SHRA SCT030TCU BKN050
PROB40
TEMPO 2011/2018 SHRA FEW040CB SCT050TCU BKN055
PROB30
TEMPO 2012/2017 VRB15G25KT 3500 TSRA SCT040CB BKN050
PROB30
TEMPO 2018/2021 SHRA FEW045TCU BKN050
Nessun NOTAM noto per questo aeroporto.
1 SIGMET conosciuto per la FIR Marseille (LFMM) :
 
Temporali affogati
LFMM SIGMET 2 VALID 200600/200800 LFPW
LFMM MARSEILLE FIR/UIR EMBD TS OBS WI N4500 E00445 - N4615 E00600 - N4600 E00645 - N4430 E00530 - N4500 E00445 TOP FL320 MOV NE 20KT NC=



MetMap, La meteo Aeronautica in un colpo d'occhio ! - Copyright ORBIFLY Dicembre 2007 - Disclaimer

ORBIFLY MET'MAP TEAM :

Programmazione e sviluppo : Alexandra Zaïnal
Concezione e sviluppo : Baudouin d'Aumeries
Co-Programmazione e sviluppo : Marc-Olivier Méhu
Supporto tecnico e logistico : Manuel Goepfert
Aiuto per la traduzione : Arnaldo La Scala

Contatto : metmap@orbifly.com




FONTI E CREDITI :

   NOAA